<?xml version="1.0" encoding="UTF-8"?>
<gpx creator="Wikiloc - https://www.wikiloc.com" version="1.1" xmlns="http://www.topografix.com/GPX/1/1" xmlns:xsi="http://www.w3.org/2001/XMLSchema-instance" xsi:schemaLocation="http://www.topografix.com/GPX/1/1 http://www.topografix.com/GPX/1/1/gpx.xsd">
  <metadata>
    <name>Wikiloc - Unione Itinerario 03 e 04</name>
    <author>
      <name>owen782</name>
      <link href="https://www.wikiloc.com/wikiloc/user.do?id=5312202">
        <text>owen782 on Wikiloc</text>
      </link>
    </author>
    <link href="https://www.wikiloc.com/hiking-trails/unione-itinerario-03-e-04-90515678">
      <text>Unione Itinerario 03 e 04 on Wikiloc</text>
    </link>
    <time>2021-12-10T11:41:01Z</time>
  </metadata>
  <trk>
    <name>Unione Itinerario 03 e 04</name>
    <cmt></cmt>
    <desc></desc>
    <trkseg>
      <trkpt lat="43.151721" lon="12.313586">
        <ele>406.978</ele>
        <time>2021-12-10T13:10:16Z</time>
      </trkpt>
      <trkpt lat="43.151908" lon="12.313742">
        <ele>407.133</ele>
        <time>2021-12-10T13:10:56Z</time>
      </trkpt>
      <trkpt lat="43.152017" lon="12.313893">
        <ele>407.026</ele>
        <time>2021-12-10T13:11:36Z</time>
      </trkpt>
      <trkpt lat="43.152130" lon="12.314009">
        <ele>406.908</ele>
        <time>2021-12-10T13:12:16Z</time>
      </trkpt>
      <trkpt lat="43.152184" lon="12.314125">
        <ele>406.456</ele>
        <time>2021-12-10T13:12:56Z</time>
      </trkpt>
      <trkpt lat="43.152313" lon="12.314292">
        <ele>405.287</ele>
        <time>2021-12-10T13:13:36Z</time>
      </trkpt>
      <trkpt lat="43.152448" lon="12.314440">
        <ele>403.632</ele>
        <time>2021-12-10T13:14:16Z</time>
      </trkpt>
      <trkpt lat="43.152728" lon="12.314688">
        <ele>399.188</ele>
        <time>2021-12-10T13:14:56Z</time>
      </trkpt>
      <trkpt lat="43.153025" lon="12.315183">
        <ele>396.072</ele>
        <time>2021-12-10T13:15:36Z</time>
      </trkpt>
      <trkpt lat="43.153185" lon="12.315434">
        <ele>395.363</ele>
        <time>2021-12-10T13:16:16Z</time>
      </trkpt>
      <trkpt lat="43.153675" lon="12.315615">
        <ele>387.694</ele>
        <time>2021-12-10T13:16:56Z</time>
      </trkpt>
      <trkpt lat="43.153977" lon="12.315789">
        <ele>381.445</ele>
        <time>2021-12-10T13:17:36Z</time>
      </trkpt>
      <trkpt lat="43.154164" lon="12.315943">
        <ele>377.725</ele>
        <time>2021-12-10T13:18:16Z</time>
      </trkpt>
      <trkpt lat="43.154273" lon="12.316149">
        <ele>376.326</ele>
        <time>2021-12-10T13:18:56Z</time>
      </trkpt>
      <trkpt lat="43.154344" lon="12.316471">
        <ele>376.708</ele>
        <time>2021-12-10T13:19:36Z</time>
      </trkpt>
      <trkpt lat="43.154357" lon="12.316703">
        <ele>377.108</ele>
        <time>2021-12-10T13:20:16Z</time>
      </trkpt>
      <trkpt lat="43.154357" lon="12.316883">
        <ele>376.991</ele>
        <time>2021-12-10T13:20:56Z</time>
      </trkpt>
      <trkpt lat="43.154402" lon="12.316979">
        <ele>375.692</ele>
        <time>2021-12-10T13:21:36Z</time>
      </trkpt>
      <trkpt lat="43.154473" lon="12.317018">
        <ele>374.517</ele>
        <time>2021-12-10T13:22:16Z</time>
      </trkpt>
      <trkpt lat="43.154556" lon="12.316992">
        <ele>374.113</ele>
        <time>2021-12-10T13:22:56Z</time>
      </trkpt>
      <trkpt lat="43.154682" lon="12.316977">
        <ele>373.757</ele>
        <time>2021-12-10T13:23:36Z</time>
      </trkpt>
    </trkseg>
  </trk></gpx>